sensor_id;sensor_type;location;lat;lon;timestamp;pressure;altitude;pressure_sealevel;temperature;humidity
37486;BME280;23341;50.296;18.960;2023-05-19T00:00:26;51649.72;;;-144.43;100.00
37486;BME280;23341;50.296;18.960;2023-05-19T00:05:53;51665.72;;;-144.43;100.00
37486;BME280;23341;50.296;18.960;2023-05-19T00:11:01;51719.72;;;-144.43;100.00
37486;BME280;23341;50.296;18.960;2023-05-19T00:16:06;51703.72;;;-144.43;100.00
37486;BME280;23341;50.296;18.960;2023-05-19T00:21:11;51737.72;;;-144.43;100.00
37486;BME280;23341;50.296;18.960;2023-05-19T00:26:17;51745.72;;;-144.43;100.00
37486;BME280;23341;50.296;18.960;2023-05-19T00:31:29;51777.72;;;-144.43;100.00
37486;BME280;23341;50.296;18.960;2023-05-19T00:36:36;51785.72;;;-144.43;100.00
37486;BME280;23341;50.296;18.960;2023-05-19T00:41:42;51809.72;;;-144.43;100.00
37486;BME280;23341;50.296;18.960;2023-05-19T00:46:46;51813.72;;;-144.43;100.00
37486;BME280;23341;50.296;18.960;2023-05-19T00:51:51;51789.72;;;-144.43;100.00
37486;BME280;23341;50.296;18.960;2023-05-19T00:56:58;51835.72;;;-144.43;100.00
37486;BME280;23341;50.296;18.960;2023-05-19T01:02:03;51817.72;;;-144.43;100.00
37486;BME280;23341;50.296;18.960;2023-05-19T01:07:10;51861.72;;;-144.43;100.00
37486;BME280;23341;50.296;18.960;2023-05-19T01:12:16;51841.72;;;-144.43;100.00
37486;BME280;23341;50.296;18.960;2023-05-19T01:17:26;51855.72;;;-144.43;100.00
37486;BME280;23341;50.296;18.960;2023-05-19T01:23:11;51857.72;;;-144.43;100.00
37486;BME280;23341;50.296;18.960;2023-05-19T01:28:30;51827.72;;;-144.43;100.00
37486;BME280;23341;50.296;18.960;2023-05-19T01:33:37;51859.72;;;-144.43;100.00
37486;BME280;23341;50.296;18.960;2023-05-19T01:38:43;51901.72;;;-144.43;100.00
37486;BME280;23341;50.296;18.960;2023-05-19T01:43:49;51897.72;;;-144.43;100.00
37486;BME280;23341;50.296;18.960;2023-05-19T01:48:55;51889.72;;;-144.43;100.00
37486;BME280;23341;50.296;18.960;2023-05-19T01:54:01;51895.72;;;-144.43;100.00
37486;BME280;23341;50.296;18.960;2023-05-19T01:59:14;51869.72;;;-144.43;100.00
37486;BME280;23341;50.296;18.960;2023-05-19T02:04:28;51885.72;;;-144.43;100.00
37486;BME280;23341;50.296;18.960;2023-05-19T02:09:38;51873.72;;;-144.43;100.00
37486;BME280;23341;50.296;18.960;2023-05-19T02:14:48;51861.72;;;-144.43;100.00
37486;BME280;23341;50.296;18.960;2023-05-19T02:19:55;51853.72;;;-144.43;100.00
37486;BME280;23341;50.296;18.960;2023-05-19T02:25:00;51869.72;;;-144.43;100.00
37486;BME280;23341;50.296;18.960;2023-05-19T02:30:08;51897.72;;;-144.43;100.00
37486;BME280;23341;50.296;18.960;2023-05-19T02:35:14;51901.72;;;-144.43;100.00
37486;BME280;23341;50.296;18.960;2023-05-19T02:40:19;51883.72;;;-144.43;100.00
37486;BME280;23341;50.296;18.960;2023-05-19T02:45:24;51903.72;;;-144.43;100.00
37486;BME280;23341;50.296;18.960;2023-05-19T02:50:33;51891.72;;;-144.43;100.00
37486;BME280;23341;50.296;18.960;2023-05-19T02:55:38;51881.72;;;-144.43;100.00
37486;BME280;23341;50.296;18.960;2023-05-19T03:00:42;51917.72;;;-144.43;100.00
37486;BME280;23341;50.296;18.960;2023-05-19T03:05:48;51919.69;;;-144.43;100.00
37486;BME280;23341;50.296;18.960;2023-05-19T03:10:52;51905.72;;;-144.43;100.00
37486;BME280;23341;50.296;18.960;2023-05-19T03:15:57;51901.72;;;-144.43;100.00
37486;BME280;23341;50.296;18.960;2023-05-19T03:21:03;51921.72;;;-144.43;100.00
37486;BME280;23341;50.296;18.960;2023-05-19T03:26:07;51913.72;;;-144.43;100.00
37486;BME280;23341;50.296;18.960;2023-05-19T03:31:12;51917.72;;;-144.43;100.00
37486;BME280;23341;50.296;18.960;2023-05-19T03:36:17;51917.72;;;-144.43;100.00
37486;BME280;23341;50.296;18.960;2023-05-19T03:41:22;51889.72;;;-144.43;100.00
37486;BME280;23341;50.296;18.960;2023-05-19T03:46:26;51901.72;;;-144.43;100.00
37486;BME280;23341;50.296;18.960;2023-05-19T03:51:56;51887.72;;;-144.43;100.00
37486;BME280;23341;50.296;18.960;2023-05-19T03:57:21;51929.72;;;-144.43;100.00
37486;BME280;23341;50.296;18.960;2023-05-19T04:02:26;51971.69;;;-144.43;100.00
37486;BME280;23341;50.296;18.960;2023-05-19T04:07:32;51901.72;;;-144.43;100.00
37486;BME280;23341;50.296;18.960;2023-05-19T04:12:36;51905.72;;;-144.43;100.00
37486;BME280;23341;50.296;18.960;2023-05-19T04:17:41;51893.72;;;-144.43;100.00
37486;BME280;23341;50.296;18.960;2023-05-19T04:22:47;51901.72;;;-144.43;100.00
37486;BME280;23341;50.296;18.960;2023-05-19T04:27:52;51889.72;;;-144.43;100.00
37486;BME280;23341;50.296;18.960;2023-05-19T04:32:59;51869.72;;;-144.43;100.00
37486;BME280;23341;50.296;18.960;2023-05-19T04:38:07;51839.72;;;-144.43;100.00
37486;BME280;23341;50.296;18.960;2023-05-19T04:43:11;51907.72;;;-144.43;100.00
37486;BME280;23341;50.296;18.960;2023-05-19T04:48:17;51869.72;;;-144.43;100.00
37486;BME280;23341;50.296;18.960;2023-05-19T04:53:25;51879.72;;;-144.43;100.00
37486;BME280;23341;50.296;18.960;2023-05-19T04:58:30;51885.72;;;-144.43;100.00
37486;BME280;23341;50.296;18.960;2023-05-19T05:03:35;51883.72;;;-144.43;100.00
37486;BME280;23341;50.296;18.960;2023-05-19T05:08:41;51885.72;;;-144.43;100.00
37486;BME280;23341;50.296;18.960;2023-05-19T05:13:46;51903.72;;;-144.43;100.00
37486;BME280;23341;50.296;18.960;2023-05-19T05:18:52;51891.72;;;-144.43;100.00
37486;BME280;23341;50.296;18.960;2023-05-19T05:23:58;51905.72;;;-144.43;100.00
37486;BME280;23341;50.296;18.960;2023-05-19T05:29:07;51869.72;;;-144.43;100.00
37486;BME280;23341;50.296;18.960;2023-05-19T05:34:12;51909.72;;;-144.43;100.00
37486;BME280;23341;50.296;18.960;2023-05-19T05:39:19;51909.72;;;-144.43;100.00
37486;BME280;23341;50.296;18.960;2023-05-19T05:44:24;51915.72;;;-144.43;100.00
37486;BME280;23341;50.296;18.960;2023-05-19T05:49:32;51921.72;;;-144.43;100.00
37486;BME280;23341;50.296;18.960;2023-05-19T05:54:41;51947.69;;;-144.43;100.00
37486;BME280;23341;50.296;18.960;2023-05-19T05:59:50;51891.72;;;-144.43;100.00
37486;BME280;23341;50.296;18.960;2023-05-19T06:04:54;51921.72;;;-144.43;100.00
37486;BME280;23341;50.296;18.960;2023-05-19T06:10:00;51937.69;;;-144.43;100.00
37486;BME280;23341;50.296;18.960;2023-05-19T06:15:06;51963.69;;;-144.43;100.00
37486;BME280;23341;50.296;18.960;2023-05-19T06:20:23;52001.69;;;-144.43;100.00
37486;BME280;23341;50.296;18.960;2023-05-19T06:25:29;52003.69;;;-144.43;100.00
37486;BME280;23341;50.296;18.960;2023-05-19T06:30:35;51981.69;;;-144.43;100.00
37486;BME280;23341;50.296;18.960;2023-05-19T06:35:52;51963.69;;;-144.43;100.00
37486;BME280;23341;50.296;18.960;2023-05-19T06:40:58;51973.69;;;-144.43;100.00
37486;BME280;23341;50.296;18.960;2023-05-19T06:46:03;51989.69;;;-144.43;100.00
37486;BME280;23341;50.296;18.960;2023-05-19T06:51:08;52005.69;;;-144.43;100.00
37486;BME280;23341;50.296;18.960;2023-05-19T06:56:16;51931.69;;;-144.43;100.00
37486;BME280;23341;50.296;18.960;2023-05-19T07:01:20;51945.69;;;-144.43;100.00
37486;BME280;23341;50.296;18.960;2023-05-19T07:06:29;52023.69;;;-144.43;100.00
37486;BME280;23341;50.296;18.960;2023-05-19T07:11:34;52013.69;;;-144.43;100.00
37486;BME280;23341;50.296;18.960;2023-05-19T07:16:40;52025.69;;;-144.43;100.00
37486;BME280;23341;50.296;18.960;2023-05-19T07:21:44;52019.69;;;-144.43;99.94
37486;BME280;23341;50.296;18.960;2023-05-19T07:26:51;52009.69;;;-144.43;98.14
37486;BME280;23341;50.296;18.960;2023-05-19T07:31:55;51987.69;;;-144.43;99.37
37486;BME280;23341;50.296;18.960;2023-05-19T07:36:59;52013.69;;;-144.43;98.70
37486;BME280;23341;50.296;18.960;2023-05-19T07:42:06;51949.69;;;-144.43;100.00
37486;BME280;23341;50.296;18.960;2023-05-19T07:47:11;51923.72;;;-144.43;100.00
37486;BME280;23341;50.296;18.960;2023-05-19T07:52:15;51981.69;;;-144.43;100.00
37486;BME280;23341;50.296;18.960;2023-05-19T07:57:21;51985.69;;;-144.43;100.00
37486;BME280;23341;50.296;18.960;2023-05-19T08:02:25;52009.69;;;-144.43;98.27
37486;BME280;23341;50.296;18.960;2023-05-19T08:07:30;52015.69;;;-144.43;98.98
37486;BME280;23341;50.296;18.960;2023-05-19T08:12:36;51923.72;;;-144.43;98.11
37486;BME280;23341;50.296;18.960;2023-05-19T08:17:40;51971.69;;;-144.43;98.88
37486;BME280;23341;50.296;18.960;2023-05-19T08:22:44;52011.69;;;-144.43;97.50
37486;BME280;23341;50.296;18.960;2023-05-19T08:27:50;51941.72;;;-144.43;97.77
37486;BME280;23341;50.296;18.960;2023-05-19T08:32:55;52015.69;;;-144.43;98.76
37486;BME280;23341;50.296;18.960;2023-05-19T08:37:59;51953.69;;;-144.43;99.56
37486;BME280;23341;50.296;18.960;2023-05-19T08:43:05;52019.69;;;-144.43;96.77
37486;BME280;23341;50.296;18.960;2023-05-19T08:48:11;52089.69;;;-144.43;94.71
37486;BME280;23341;50.296;18.960;2023-05-19T08:53:19;52103.69;;;-144.43;95.08
37486;BME280;23341;50.296;18.960;2023-05-19T08:58:35;52197.72;;;-144.43;93.68
37486;BME280;23341;50.296;18.960;2023-05-19T09:03:42;52207.72;;;-144.43;91.44
37486;BME280;23341;50.296;18.960;2023-05-19T09:08:47;52141.69;;;-144.43;89.57
37486;BME280;23341;50.296;18.960;2023-05-19T09:13:53;51941.72;;;-144.43;92.67
37486;BME280;23341;50.296;18.960;2023-05-19T09:18:57;52025.69;;;-144.43;91.84
37486;BME280;23341;50.296;18.960;2023-05-19T09:24:04;52015.69;;;-144.43;90.93
37486;BME280;23341;50.296;18.960;2023-05-19T09:29:14;51999.69;;;-144.43;92.46
37486;BME280;23341;50.296;18.960;2023-05-19T09:34:20;52041.69;;;-144.43;92.45
37486;BME280;23341;50.296;18.960;2023-05-19T09:39:26;51969.69;;;-144.43;93.42
37486;BME280;23341;50.296;18.960;2023-05-19T09:44:34;51949.69;;;-144.43;94.33
37486;BME280;23341;50.296;18.960;2023-05-19T09:49:45;51971.69;;;-144.43;93.45
37486;BME280;23341;50.296;18.960;2023-05-19T09:54:50;51945.69;;;-144.43;94.06
37486;BME280;23341;50.296;18.960;2023-05-19T09:59:56;51903.72;;;-144.43;95.23
37486;BME280;23341;50.296;18.960;2023-05-19T10:05:02;51913.72;;;-144.43;94.97
37486;BME280;23341;50.296;18.960;2023-05-19T10:10:09;51921.72;;;-144.43;94.91
37486;BME280;23341;50.296;18.960;2023-05-19T10:15:17;52021.69;;;-144.43;93.38
37486;BME280;23341;50.296;18.960;2023-05-19T10:20:25;51959.72;;;-144.43;93.92
37486;BME280;23341;50.296;18.960;2023-05-19T10:25:31;51965.69;;;-144.43;94.84
37486;BME280;23341;50.296;18.960;2023-05-19T10:30:39;52005.69;;;-144.43;94.55
37486;BME280;23341;50.296;18.960;2023-05-19T10:36:11;51985.69;;;-144.43;93.74
37486;BME280;23341;50.296;18.960;2023-05-19T10:41:26;52113.69;;;-144.43;93.56
37486;BME280;23341;50.296;18.960;2023-05-19T10:46:32;52021.69;;;-144.43;91.80
37486;BME280;23341;50.296;18.960;2023-05-19T10:51:37;52059.69;;;-144.43;91.75
37486;BME280;23341;50.296;18.960;2023-05-19T10:56:43;52097.69;;;-144.43;90.44
37486;BME280;23341;50.296;18.960;2023-05-19T11:01:50;52153.69;;;-144.43;90.95
37486;BME280;23341;50.296;18.960;2023-05-19T11:06:55;52185.69;;;-144.43;89.03
37486;BME280;23341;50.296;18.960;2023-05-19T11:12:02;52099.69;;;-144.43;89.51
37486;BME280;23341;50.296;18.960;2023-05-19T11:17:12;52135.69;;;-144.43;90.12
37486;BME280;23341;50.296;18.960;2023-05-19T11:22:17;52097.69;;;-144.43;90.92
37486;BME280;23341;50.296;18.960;2023-05-19T11:27:26;52101.69;;;-144.43;89.63
37486;BME280;23341;50.296;18.960;2023-05-19T11:32:32;52201.69;;;-144.43;89.95
37486;BME280;23341;50.296;18.960;2023-05-19T11:37:38;52201.69;;;-144.43;88.50
37486;BME280;23341;50.296;18.960;2023-05-19T11:42:44;52165.69;;;-144.43;88.67
37486;BME280;23341;50.296;18.960;2023-05-19T11:47:50;52201.69;;;-144.43;87.83
37486;BME280;23341;50.296;18.960;2023-05-19T11:53:02;52319.72;;;-144.43;86.81
37486;BME280;23341;50.296;18.960;2023-05-19T11:58:07;52227.72;;;-144.43;86.98
37486;BME280;23341;50.296;18.960;2023-05-19T12:03:12;52119.69;;;-144.43;88.64
37486;BME280;23341;50.296;18.960;2023-05-19T12:08:17;52129.69;;;-144.43;88.97
37486;BME280;23341;50.296;18.960;2023-05-19T12:13:22;52103.69;;;-144.43;87.37
37486;BME280;23341;50.296;18.960;2023-05-19T12:18:28;52177.69;;;-144.43;86.14
37486;BME280;23341;50.296;18.960;2023-05-19T12:23:34;52201.69;;;-144.43;90.13
37486;BME280;23341;50.296;18.960;2023-05-19T12:28:38;52269.72;;;-144.43;88.26
37486;BME280;23341;50.296;18.960;2023-05-19T12:33:44;52219.72;;;-144.43;88.04
37486;BME280;23341;50.296;18.960;2023-05-19T12:38:53;52333.72;;;-144.43;85.76
37486;BME280;23341;50.296;18.960;2023-05-19T12:43:58;52373.72;;;-144.43;84.06
37486;BME280;23341;50.296;18.960;2023-05-19T12:49:04;52353.72;;;-144.43;85.58
37486;BME280;23341;50.296;18.960;2023-05-19T12:54:08;52241.72;;;-144.43;83.63
37486;BME280;23341;50.296;18.960;2023-05-19T12:59:20;52239.72;;;-144.43;85.61
37486;BME280;23341;50.296;18.960;2023-05-19T13:04:40;52229.72;;;-144.43;85.98
37486;BME280;23341;50.296;18.960;2023-05-19T13:09:44;52145.69;;;-144.43;87.44
37486;BME280;23341;50.296;18.960;2023-05-19T13:14:50;52269.72;;;-144.43;87.26
37486;BME280;23341;50.296;18.960;2023-05-19T13:19:58;52191.72;;;-144.43;88.03
37486;BME280;23341;50.296;18.960;2023-05-19T13:25:02;52153.69;;;-144.43;87.05
37486;BME280;23341;50.296;18.960;2023-05-19T13:30:08;52219.72;;;-144.43;86.54
37486;BME280;23341;50.296;18.960;2023-05-19T13:35:14;52231.72;;;-144.43;85.91
37486;BME280;23341;50.296;18.960;2023-05-19T13:40:18;52193.72;;;-144.43;86.43
37486;BME280;23341;50.296;18.960;2023-05-19T13:45:23;52253.72;;;-144.43;85.78
37486;BME280;23341;50.296;18.960;2023-05-19T13:50:29;52347.72;;;-144.43;84.91
37486;BME280;23341;50.296;18.960;2023-05-19T13:55:33;52345.72;;;-144.43;84.79
37486;BME280;23341;50.296;18.960;2023-05-19T14:00:37;52189.72;;;-144.43;87.39
37486;BME280;23341;50.296;18.960;2023-05-19T14:05:44;52263.72;;;-144.43;87.36
37486;BME280;23341;50.296;18.960;2023-05-19T14:10:49;52133.69;;;-144.43;88.54
37486;BME280;23341;50.296;18.960;2023-05-19T14:15:53;52123.69;;;-144.43;90.41
37486;BME280;23341;50.296;18.960;2023-05-19T14:20:59;52033.69;;;-144.43;91.45
37486;BME280;23341;50.296;18.960;2023-05-19T14:26:04;52069.69;;;-144.43;91.99
37486;BME280;23341;50.296;18.960;2023-05-19T14:31:10;52037.69;;;-144.43;90.53
37486;BME280;23341;50.296;18.960;2023-05-19T14:36:16;52061.69;;;-144.43;92.58
37486;BME280;23341;50.296;18.960;2023-05-19T14:41:20;52101.69;;;-144.43;90.82
37486;BME280;23341;50.296;18.960;2023-05-19T14:46:24;52071.69;;;-144.43;90.64
37486;BME280;23341;50.296;18.960;2023-05-19T14:51:31;52045.69;;;-144.43;90.80
37486;BME280;23341;50.296;18.960;2023-05-19T14:56:35;52049.69;;;-144.43;90.82
37486;BME280;23341;50.296;18.960;2023-05-19T15:01:40;52045.69;;;-144.43;91.80
37486;BME280;23341;50.296;18.960;2023-05-19T15:06:45;52009.69;;;-144.43;92.41
37486;BME280;23341;50.296;18.960;2023-05-19T15:12:10;52005.69;;;-144.43;93.40
37486;BME280;23341;50.296;18.960;2023-05-19T15:17:14;52013.69;;;-144.43;93.42
37486;BME280;23341;50.296;18.960;2023-05-19T15:22:20;51937.69;;;-144.43;94.70
37486;BME280;23341;50.296;18.960;2023-05-19T15:27:25;51911.72;;;-144.43;95.54
37486;BME280;23341;50.296;18.960;2023-05-19T15:32:29;51877.72;;;-144.43;95.57
37486;BME280;23341;50.296;18.960;2023-05-19T15:37:35;51917.72;;;-144.43;96.64
37486;BME280;23341;50.296;18.960;2023-05-19T15:42:39;51885.72;;;-144.43;97.59
37486;BME280;23341;50.296;18.960;2023-05-19T15:47:44;51935.69;;;-144.43;96.96
37486;BME280;23341;50.296;18.960;2023-05-19T15:52:49;51839.72;;;-144.43;99.24
37486;BME280;23341;50.296;18.960;2023-05-19T15:57:54;51821.72;;;-144.43;100.00
37486;BME280;23341;50.296;18.960;2023-05-19T16:02:58;51827.72;;;-144.43;100.00
37486;BME280;23341;50.296;18.960;2023-05-19T16:08:04;51791.72;;;-144.43;100.00
37486;BME280;23341;50.296;18.960;2023-05-19T16:13:10;51853.72;;;-144.43;100.00
37486;BME280;23341;50.296;18.960;2023-05-19T16:18:14;51883.72;;;-144.43;100.00
37486;BME280;23341;50.296;18.960;2023-05-19T16:23:20;51877.72;;;-144.43;100.00
37486;BME280;23341;50.296;18.960;2023-05-19T16:28:26;51841.72;;;-144.43;100.00
37486;BME280;23341;50.296;18.960;2023-05-19T16:33:31;51877.72;;;-144.43;100.00
37486;BME280;23341;50.296;18.960;2023-05-19T16:38:36;51921.72;;;-144.43;100.00
37486;BME280;23341;50.296;18.960;2023-05-19T16:43:40;51863.72;;;-144.43;100.00
37486;BME280;23341;50.296;18.960;2023-05-19T16:48:45;51855.72;;;-144.43;100.00
37486;BME280;23341;50.296;18.960;2023-05-19T16:53:51;51869.72;;;-144.43;100.00
37486;BME280;23341;50.296;18.960;2023-05-19T16:58:55;51891.72;;;-144.43;100.00
37486;BME280;23341;50.296;18.960;2023-05-19T17:03:59;51869.72;;;-144.43;100.00
37486;BME280;23341;50.296;18.960;2023-05-19T17:09:05;51869.72;;;-144.43;100.00
37486;BME280;23341;50.296;18.960;2023-05-19T17:14:09;51889.72;;;-144.43;100.00
37486;BME280;23341;50.296;18.960;2023-05-19T17:19:13;51845.72;;;-144.43;100.00
37486;BME280;23341;50.296;18.960;2023-05-19T17:24:19;51843.72;;;-144.43;100.00
37486;BME280;23341;50.296;18.960;2023-05-19T17:29:24;51879.72;;;-144.43;100.00
37486;BME280;23341;50.296;18.960;2023-05-19T17:34:29;51843.72;;;-144.43;100.00
37486;BME280;23341;50.296;18.960;2023-05-19T17:39:35;51893.72;;;-144.43;100.00
37486;BME280;23341;50.296;18.960;2023-05-19T17:44:39;51829.72;;;-144.43;100.00
37486;BME280;23341;50.296;18.960;2023-05-19T17:49:43;51837.72;;;-144.43;100.00
37486;BME280;23341;50.296;18.960;2023-05-19T17:54:50;51843.72;;;-144.43;100.00
37486;BME280;23341;50.296;18.960;2023-05-19T17:59:54;51919.69;;;-144.43;100.00
37486;BME280;23341;50.296;18.960;2023-05-19T18:05:00;51911.72;;;-144.43;100.00
37486;BME280;23341;50.296;18.960;2023-05-19T18:10:09;51891.72;;;-144.43;100.00
37486;BME280;23341;50.296;18.960;2023-05-19T18:15:17;51941.72;;;-144.43;100.00
37486;BME280;23341;50.296;18.960;2023-05-19T18:20:21;51933.69;;;-144.43;100.00
37486;BME280;23341;50.296;18.960;2023-05-19T18:25:27;52009.69;;;-144.43;100.00
37486;BME280;23341;50.296;18.960;2023-05-19T18:30:31;51997.69;;;-144.43;100.00
37486;BME280;23341;50.296;18.960;2023-05-19T18:35:37;52019.69;;;-144.43;100.00
37486;BME280;23341;50.296;18.960;2023-05-19T18:40:43;51993.69;;;-144.43;100.00
37486;BME280;23341;50.296;18.960;2023-05-19T18:45:47;52035.69;;;-144.43;100.00
37486;BME280;23341;50.296;18.960;2023-05-19T18:50:52;52043.69;;;-144.43;100.00
37486;BME280;23341;50.296;18.960;2023-05-19T18:55:58;52045.69;;;-144.43;100.00
37486;BME280;23341;50.296;18.960;2023-05-19T19:01:03;52039.69;;;-144.43;100.00
37486;BME280;23341;50.296;18.960;2023-05-19T19:06:07;52011.69;;;-144.43;100.00
37486;BME280;23341;50.296;18.960;2023-05-19T19:11:13;52049.69;;;-144.43;100.00
37486;BME280;23341;50.296;18.960;2023-05-19T19:16:17;52059.69;;;-144.43;100.00
37486;BME280;23341;50.296;18.960;2023-05-19T19:21:22;52087.69;;;-144.43;100.00
37486;BME280;23341;50.296;18.960;2023-05-19T19:26:28;52083.69;;;-144.43;100.00
37486;BME280;23341;50.296;18.960;2023-05-19T19:31:33;52103.69;;;-144.43;100.00
37486;BME280;23341;50.296;18.960;2023-05-19T19:36:37;52137.69;;;-144.43;100.00
37486;BME280;23341;50.296;18.960;2023-05-19T19:41:43;52191.72;;;-144.43;100.00
37486;BME280;23341;50.296;18.960;2023-05-19T19:46:48;52181.69;;;-144.43;100.00
37486;BME280;23341;50.296;18.960;2023-05-19T19:51:53;52199.72;;;-144.43;100.00
37486;BME280;23341;50.296;18.960;2023-05-19T19:56:59;52173.69;;;-144.43;100.00
37486;BME280;23341;50.296;18.960;2023-05-19T20:02:04;52153.69;;;-144.43;100.00
37486;BME280;23341;50.296;18.960;2023-05-19T20:07:08;52159.69;;;-144.43;100.00
37486;BME280;23341;50.296;18.960;2023-05-19T20:12:14;52203.69;;;-144.43;100.00
37486;BME280;23341;50.296;18.960;2023-05-19T20:17:19;52221.72;;;-144.43;100.00
37486;BME280;23341;50.296;18.960;2023-05-19T20:22:23;52199.72;;;-144.43;100.00
37486;BME280;23341;50.296;18.960;2023-05-19T20:27:29;52207.72;;;-144.43;100.00
37486;BME280;23341;50.296;18.960;2023-05-19T20:32:34;52219.72;;;-144.43;100.00
37486;BME280;23341;50.296;18.960;2023-05-19T20:37:38;52171.69;;;-144.43;100.00
37486;BME280;23341;50.296;18.960;2023-05-19T20:42:44;52227.72;;;-144.43;100.00
37486;BME280;23341;50.296;18.960;2023-05-19T20:47:49;52221.72;;;-144.43;100.00
37486;BME280;23341;50.296;18.960;2023-05-19T20:52:53;52227.72;;;-144.43;100.00
37486;BME280;23341;50.296;18.960;2023-05-19T20:57:59;52239.72;;;-144.43;100.00
37486;BME280;23341;50.296;18.960;2023-05-19T21:03:04;52239.72;;;-144.43;100.00
37486;BME280;23341;50.296;18.960;2023-05-19T21:08:08;52221.72;;;-144.43;100.00
37486;BME280;23341;50.296;18.960;2023-05-19T21:13:17;52239.72;;;-144.43;100.00
37486;BME280;23341;50.296;18.960;2023-05-19T21:18:21;52217.72;;;-144.43;100.00
37486;BME280;23341;50.296;18.960;2023-05-19T21:23:25;52219.72;;;-144.43;100.00
37486;BME280;23341;50.296;18.960;2023-05-19T21:28:31;52203.69;;;-144.43;100.00
37486;BME280;23341;50.296;18.960;2023-05-19T21:33:36;52231.72;;;-144.43;100.00
37486;BME280;23341;50.296;18.960;2023-05-19T21:38:40;52215.72;;;-144.43;100.00
37486;BME280;23341;50.296;18.960;2023-05-19T21:43:46;52179.69;;;-144.43;100.00
37486;BME280;23341;50.296;18.960;2023-05-19T21:48:50;52209.72;;;-144.43;100.00
37486;BME280;23341;50.296;18.960;2023-05-19T21:53:55;52253.72;;;-144.43;100.00
37486;BME280;23341;50.296;18.960;2023-05-19T21:59:00;52217.72;;;-144.43;100.00
37486;BME280;23341;50.296;18.960;2023-05-19T22:04:05;52245.72;;;-144.43;100.00
37486;BME280;23341;50.296;18.960;2023-05-19T22:09:09;52227.72;;;-144.43;100.00
37486;BME280;23341;50.296;18.960;2023-05-19T22:14:15;52245.72;;;-144.43;100.00
37486;BME280;23341;50.296;18.960;2023-05-19T22:19:19;52241.72;;;-144.43;100.00
37486;BME280;23341;50.296;18.960;2023-05-19T22:24:23;52253.72;;;-144.43;100.00
37486;BME280;23341;50.296;18.960;2023-05-19T22:29:31;52243.72;;;-144.43;100.00
37486;BME280;23341;50.296;18.960;2023-05-19T22:34:35;52277.72;;;-144.43;100.00
37486;BME280;23341;50.296;18.960;2023-05-19T22:39:40;52269.72;;;-144.43;100.00
37486;BME280;23341;50.296;18.960;2023-05-19T22:44:45;52269.72;;;-144.43;100.00
37486;BME280;23341;50.296;18.960;2023-05-19T22:49:50;52261.72;;;-144.43;100.00
37486;BME280;23341;50.296;18.960;2023-05-19T22:54:56;52239.72;;;-144.43;100.00
37486;BME280;23341;50.296;18.960;2023-05-19T23:00:02;52271.72;;;-144.43;100.00
37486;BME280;23341;50.296;18.960;2023-05-19T23:05:07;52239.72;;;-144.43;100.00
37486;BME280;23341;50.296;18.960;2023-05-19T23:10:12;52245.72;;;-144.43;100.00
37486;BME280;23341;50.296;18.960;2023-05-19T23:15:17;52283.72;;;-144.43;100.00
37486;BME280;23341;50.296;18.960;2023-05-19T23:20:21;52259.72;;;-144.43;100.00
37486;BME280;23341;50.296;18.960;2023-05-19T23:25:26;52255.72;;;-144.43;100.00
37486;BME280;23341;50.296;18.960;2023-05-19T23:30:35;52231.72;;;-144.43;100.00
37486;BME280;23341;50.296;18.960;2023-05-19T23:35:39;52281.72;;;-144.43;100.00
37486;BME280;23341;50.296;18.960;2023-05-19T23:40:44;52257.72;;;-144.43;100.00
37486;BME280;23341;50.296;18.960;2023-05-19T23:45:49;52283.72;;;-144.43;100.00
37486;BME280;23341;50.296;18.960;2023-05-19T23:50:54;52285.72;;;-144.43;100.00
37486;BME280;23341;50.296;18.960;2023-05-19T23:55:58;52303.72;;;-144.43;100.00
